createdAt,value
2022-08-19T00:01:30.670Z,28.40
2022-08-19T00:04:00.106Z,27.25
2022-08-19T00:06:29.546Z,27.30
2022-08-19T00:08:57.694Z,27.30
2022-08-19T00:11:26.426Z,29.35
2022-08-19T00:13:56.285Z,27.17
2022-08-19T00:16:26.183Z,26.23
2022-08-19T00:18:56.141Z,27.67
2022-08-19T00:21:24.350Z,26.70
2022-08-19T00:23:51.324Z,25.30
2022-08-19T00:26:18.208Z,25.90
2022-08-19T00:28:44.886Z,28.20
2022-08-19T00:31:11.628Z,26.38
2022-08-19T00:33:39.053Z,26.57
2022-08-19T00:36:08.573Z,26.65
2022-08-19T00:38:37.776Z,26.77
2022-08-19T00:41:06.952Z,25.85
2022-08-19T00:43:34.174Z,27.75
2022-08-19T00:46:02.374Z,26.43
2022-08-19T00:48:29.280Z,26.08
2022-08-19T00:50:56.469Z,26.10
2022-08-19T00:53:27.347Z,25.35
2022-08-19T00:55:57.080Z,27.00
2022-08-19T00:58:28.418Z,25.73
2022-08-19T01:00:55.133Z,28.02
2022-08-19T01:03:22.953Z,29.33
2022-08-19T01:05:51.492Z,25.73
2022-08-19T01:08:19.994Z,26.30
2022-08-19T01:10:51.616Z,26.07
2022-08-19T01:13:25.629Z,27.75
2022-08-19T01:15:59.044Z,28.65
2022-08-19T01:18:27.471Z,26.13
2022-08-19T01:20:59.067Z,28.55
2022-08-19T01:23:43.361Z,29.53
2022-08-19T01:26:18.123Z,30.35
2022-08-19T01:28:48.599Z,28.80
2022-08-19T01:31:27.009Z,28.80
2022-08-19T01:33:56.991Z,30.85
2022-08-19T01:36:56.219Z,30.47
2022-08-19T01:39:25.125Z,30.55
2022-08-19T01:41:54.497Z,30.77
2022-08-19T01:44:24.881Z,33.45
2022-08-19T01:46:52.738Z,31.63
2022-08-19T01:49:22.329Z,33.23
2022-08-19T01:51:50.598Z,32.08
2022-08-19T01:54:27.263Z,32.30
2022-08-19T01:56:58.956Z,31.92
2022-08-19T01:59:25.700Z,31.08
2022-08-19T02:01:52.423Z,32.93
2022-08-19T02:04:19.462Z,31.73
2022-08-19T02:06:46.128Z,33.83
2022-08-19T02:09:12.952Z,32.25
2022-08-19T02:11:40.006Z,32.80
2022-08-19T02:14:09.084Z,32.63
2022-08-19T02:16:37.433Z,31.33
2022-08-19T02:19:05.396Z,31.70
2022-08-19T02:21:32.820Z,34.65
2022-08-19T02:24:00.005Z,33.75
2022-08-19T02:26:27.796Z,34.17
2022-08-19T02:28:55.725Z,36.75
2022-08-19T02:31:25.870Z,37.92
2022-08-19T02:33:56.522Z,38.65
2022-08-19T02:36:25.305Z,37.25
2022-08-19T02:38:54.704Z,38.13
2022-08-19T02:41:26.850Z,37.45
2022-08-19T02:44:26.423Z,36.33
2022-08-19T02:46:48.991Z,34.83
2022-08-19T02:49:18.943Z,39.45
2022-08-19T02:51:47.683Z,38.53
2022-08-19T02:54:15.372Z,39.83
2022-08-19T02:56:43.998Z,36.95
2022-08-19T02:59:11.243Z,35.83
2022-08-19T03:01:41.283Z,33.72
2022-08-19T03:04:09.247Z,34.60
2022-08-19T03:06:41.738Z,35.33
2022-08-19T03:09:08.923Z,40.00
2022-08-19T03:11:35.797Z,36.17
2022-08-19T03:14:03.952Z,36.45
2022-08-19T03:16:33.943Z,58.20
2022-08-19T03:19:01.965Z,38.85
2022-08-19T03:21:32.395Z,38.42
2022-08-19T03:24:04.861Z,34.33
2022-08-19T03:26:31.604Z,34.53
2022-08-19T03:28:59.950Z,34.80
2022-08-19T03:31:43.551Z,37.80
2022-08-19T03:34:21.506Z,36.97
2022-08-19T03:36:48.528Z,36.88
2022-08-19T03:39:15.596Z,37.70
2022-08-19T03:41:46.657Z,36.03
2022-08-19T03:44:19.231Z,34.47
2022-08-19T03:46:51.759Z,33.70
2022-08-19T03:49:19.687Z,34.35
2022-08-19T03:51:47.577Z,36.97
2022-08-19T03:54:17.415Z,35.33
2022-08-19T03:56:46.294Z,35.03
2022-08-19T03:59:17.604Z,36.58
2022-08-19T04:01:44.839Z,38.20
2022-08-19T04:04:11.597Z,36.45
2022-08-19T04:06:40.147Z,34.93
2022-08-19T04:09:09.761Z,35.00
2022-08-19T04:11:49.544Z,36.45
2022-08-19T04:14:20.800Z,36.13
2022-08-19T04:16:48.701Z,36.20
2022-08-19T04:19:17.650Z,36.00
2022-08-19T04:21:47.241Z,32.17
2022-08-19T04:24:15.357Z,34.83
2022-08-19T04:26:42.575Z,35.20
2022-08-19T04:29:13.053Z,35.75
2022-08-19T04:31:41.883Z,37.87
2022-08-19T04:34:13.912Z,35.03
2022-08-19T04:36:45.037Z,33.92
2022-08-19T04:39:15.080Z,35.08
2022-08-19T04:42:01.977Z,33.17
2022-08-19T04:44:31.499Z,30.73
2022-08-19T04:47:01.440Z,30.45
2022-08-19T04:49:28.827Z,31.77
2022-08-19T04:51:56.020Z,31.33
2022-08-19T04:54:37.443Z,30.08
2022-08-19T04:57:07.917Z,30.43
2022-08-19T04:59:35.601Z,30.73
2022-08-19T05:02:02.855Z,29.17
2022-08-19T05:04:32.952Z,31.05
2022-08-19T05:07:01.915Z,31.85
2022-08-19T05:09:55.398Z,30.53
2022-08-19T05:12:16.912Z,31.60
2022-08-19T05:14:46.102Z,28.55
2022-08-19T05:17:27.252Z,30.42
2022-08-19T05:20:13.679Z,30.08
2022-08-19T05:22:41.260Z,32.27
2022-08-19T05:25:13.909Z,33.80
2022-08-19T05:27:42.510Z,30.48
2022-08-19T05:30:10.916Z,31.50
2022-08-19T05:32:37.935Z,30.75
2022-08-19T05:35:05.752Z,29.43
2022-08-19T05:37:32.702Z,31.23
2022-08-19T05:39:59.445Z,30.88
2022-08-19T05:42:27.420Z,31.60
2022-08-19T05:44:54.450Z,31.02
2022-08-19T05:47:21.253Z,29.03
2022-08-19T05:49:48.594Z,32.28
2022-08-19T05:52:19.057Z,32.97
2022-08-19T05:54:51.269Z,31.77
2022-08-19T05:57:20.035Z,30.15
2022-08-19T05:59:49.342Z,31.30
2022-08-19T06:02:19.714Z,31.60
2022-08-19T06:04:46.523Z,30.30
2022-08-19T06:07:13.281Z,30.33
2022-08-19T06:09:41.392Z,29.27
2022-08-19T06:12:10.499Z,32.93
2022-08-19T06:14:40.411Z,30.58
2022-08-19T06:17:09.178Z,28.30
2022-08-19T06:19:41.173Z,31.48
2022-08-19T06:22:08.472Z,30.80
2022-08-19T06:24:36.408Z,29.73
2022-08-19T06:27:06.451Z,29.77
2022-08-19T06:29:33.687Z,29.13
2022-08-19T06:32:03.354Z,33.45
2022-08-19T06:34:32.641Z,34.20
2022-08-19T06:37:02.016Z,35.77
2022-08-19T06:39:32.510Z,33.85
2022-08-19T06:42:02.006Z,32.83
2022-08-19T06:44:35.252Z,26.98
2022-08-19T06:47:14.284Z,29.52
2022-08-19T06:49:43.070Z,31.50
2022-08-19T06:52:13.930Z,29.42
2022-08-19T06:54:56.505Z,32.30
2022-08-19T06:57:24.887Z,34.20
2022-08-19T06:59:51.978Z,33.08
2022-08-19T07:02:20.229Z,30.57
2022-08-19T07:04:47.109Z,33.47
2022-08-19T07:07:20.306Z,31.33
2022-08-19T07:09:51.568Z,32.80
2022-08-19T07:12:24.676Z,34.78
2022-08-19T07:14:54.614Z,33.30
2022-08-19T07:17:21.761Z,29.63
2022-08-19T07:19:48.638Z,33.05
2022-08-19T07:22:15.918Z,34.65
2022-08-19T07:24:50.989Z,32.85
2022-08-19T07:27:24.173Z,34.67
2022-08-19T07:29:56.148Z,33.35
2022-08-19T07:32:27.794Z,32.38
2022-08-19T07:34:55.196Z,36.47
2022-08-19T07:37:28.365Z,38.90
2022-08-19T07:39:57.625Z,34.67
2022-08-19T07:42:24.363Z,34.45
2022-08-19T07:44:51.193Z,35.42
2022-08-19T07:47:49.428Z,38.28
2022-08-19T07:50:11.731Z,35.30
2022-08-19T07:52:40.287Z,37.53
2022-08-19T07:55:40.035Z,33.78
2022-08-19T07:57:56.867Z,36.38
2022-08-19T08:00:24.861Z,37.10
2022-08-19T08:02:55.854Z,38.30
2022-08-19T08:05:43.831Z,36.27
2022-08-19T08:08:32.177Z,33.30
2022-08-19T08:10:59.961Z,37.00
2022-08-19T08:13:28.002Z,35.78
2022-08-19T08:15:56.275Z,39.22
2022-08-19T08:18:27.789Z,32.80
2022-08-19T08:20:56.488Z,36.00
2022-08-19T08:23:25.791Z,35.15
2022-08-19T08:25:55.573Z,32.90
2022-08-19T08:28:22.844Z,34.25
2022-08-19T08:30:50.807Z,37.27
2022-08-19T08:33:32.701Z,34.80
2022-08-19T08:36:00.114Z,35.60
2022-08-19T08:38:26.895Z,34.85
2022-08-19T08:41:07.741Z,35.67
2022-08-19T08:43:38.159Z,35.40
2022-08-19T08:46:12.192Z,36.08
2022-08-19T08:48:52.744Z,36.88
2022-08-19T08:51:34.425Z,33.80
2022-08-19T08:54:05.361Z,36.35
2022-08-19T08:56:32.480Z,32.50
2022-08-19T08:59:11.019Z,32.53
2022-08-19T09:01:37.833Z,33.55
2022-08-19T09:04:06.955Z,35.95
2022-08-19T09:07:18.246Z,32.42
2022-08-19T09:09:58.761Z,34.17
2022-08-19T09:12:52.258Z,35.25
2022-08-19T09:15:33.362Z,32.17
2022-08-19T09:18:07.214Z,32.92
2022-08-19T09:20:34.166Z,34.88
2022-08-19T09:23:00.873Z,34.73
2022-08-19T09:25:29.496Z,38.90
2022-08-19T09:28:02.625Z,36.47
2022-08-19T09:30:38.783Z,35.45
2022-08-19T09:33:06.167Z,37.17
2022-08-19T09:35:49.965Z,34.40
2022-08-19T09:38:21.811Z,33.38
2022-08-19T09:40:50.527Z,35.83
2022-08-19T09:43:33.553Z,35.95
2022-08-19T09:46:02.166Z,37.58
2022-08-19T09:48:28.927Z,36.37
2022-08-19T09:50:55.703Z,34.28
2022-08-19T09:53:25.234Z,39.58
2022-08-19T09:55:52.853Z,37.75
2022-08-19T09:58:23.395Z,34.60
2022-08-19T10:00:53.349Z,34.37
2022-08-19T10:03:20.247Z,36.90
2022-08-19T10:05:49.867Z,37.95
2022-08-19T10:08:26.819Z,35.00
2022-08-19T10:10:55.943Z,34.58
2022-08-19T10:13:27.039Z,36.27
2022-08-19T10:15:56.087Z,36.47
2022-08-19T10:18:25.364Z,34.75
2022-08-19T10:20:54.524Z,35.53
2022-08-19T10:23:22.232Z,35.75
2022-08-19T10:25:49.849Z,34.90
2022-08-19T10:28:19.244Z,39.38
2022-08-19T10:30:46.638Z,35.60
2022-08-19T10:33:14.973Z,36.03
2022-08-19T10:35:56.528Z,32.20
2022-08-19T10:38:31.461Z,36.93
2022-08-19T10:40:59.219Z,36.13
2022-08-19T10:43:26.253Z,35.53
2022-08-19T10:45:56.926Z,34.33
2022-08-19T10:48:23.639Z,35.38
2022-08-19T10:51:09.052Z,32.47
2022-08-19T10:53:35.915Z,31.23
2022-08-19T10:56:21.872Z,35.63
2022-08-19T10:58:49.364Z,33.45
2022-08-19T11:01:16.203Z,31.42
2022-08-19T11:03:42.951Z,31.97
2022-08-19T11:06:09.901Z,31.27
2022-08-19T11:08:38.697Z,33.67
2022-08-19T11:11:07.676Z,31.02
2022-08-19T11:13:38.343Z,30.25
2022-08-19T11:16:11.998Z,29.60
2022-08-19T11:18:41.472Z,30.60
2022-08-19T11:21:11.365Z,29.15
2022-08-19T11:23:38.164Z,30.73
2022-08-19T11:26:04.887Z,30.83
2022-08-19T11:28:31.598Z,29.00
2022-08-19T11:30:58.357Z,31.23
2022-08-19T11:33:27.204Z,32.80
2022-08-19T11:35:55.183Z,30.52
2022-08-19T11:38:21.938Z,30.17
2022-08-19T11:40:58.895Z,30.60
2022-08-19T11:43:27.729Z,33.78
2022-08-19T11:45:56.267Z,31.00
2022-08-19T11:48:23.652Z,31.02
2022-08-19T11:50:51.025Z,31.67
2022-08-19T11:53:20.285Z,31.10
2022-08-19T11:55:48.609Z,32.13
2022-08-19T11:58:19.087Z,32.88
2022-08-19T12:00:46.225Z,33.95
2022-08-19T12:03:13.854Z,30.15
2022-08-19T12:05:41.781Z,32.83
2022-08-19T12:08:09.666Z,32.33
2022-08-19T12:10:36.907Z,32.00
2022-08-19T12:13:03.975Z,30.42
2022-08-19T12:15:36.845Z,32.58
2022-08-19T12:18:05.806Z,33.57
2022-08-19T12:20:36.362Z,33.45
2022-08-19T12:23:04.433Z,30.45
2022-08-19T12:25:31.841Z,31.83
2022-08-19T12:27:59.332Z,31.17
2022-08-19T12:30:26.372Z,35.87
2022-08-19T12:32:53.108Z,39.40
2022-08-19T12:35:21.070Z,42.50
2022-08-19T12:37:56.767Z,35.10
2022-08-19T12:40:26.272Z,38.22
2022-08-19T12:42:54.324Z,39.00
2022-08-19T12:45:21.049Z,33.67
2022-08-19T12:47:47.892Z,36.00
2022-08-19T12:50:16.461Z,37.00
2022-08-19T12:52:43.328Z,36.92
2022-08-19T12:55:12.366Z,43.77
2022-08-19T12:57:39.244Z,41.08
2022-08-19T13:00:14.375Z,37.97
2022-08-19T13:02:46.428Z,39.97
2022-08-19T13:05:17.609Z,39.15
2022-08-19T13:07:47.104Z,39.87
2022-08-19T13:10:16.737Z,41.47
2022-08-19T13:12:44.989Z,43.00
2022-08-19T13:15:12.783Z,44.65
2022-08-19T13:17:42.442Z,43.33
2022-08-19T13:20:10.721Z,39.70
2022-08-19T13:22:38.334Z,41.03
2022-08-19T13:25:06.896Z,41.85
2022-08-19T13:27:33.804Z,43.83
2022-08-19T13:30:20.818Z,40.25
2022-08-19T13:33:06.121Z,44.63
2022-08-19T13:35:33.145Z,43.22
2022-08-19T13:38:00.090Z,45.70
2022-08-19T13:40:27.863Z,43.45
2022-08-19T13:42:55.998Z,38.38
2022-08-19T13:45:25.610Z,43.47
2022-08-19T13:47:59.247Z,41.58
2022-08-19T13:50:34.451Z,41.67
2022-08-19T13:53:02.321Z,39.50
2022-08-19T13:55:29.458Z,42.17
2022-08-19T13:58:02.341Z,38.43
2022-08-19T14:00:32.129Z,41.30
2022-08-19T14:02:58.984Z,38.55
2022-08-19T14:05:27.872Z,34.08
2022-08-19T14:07:54.853Z,35.47
2022-08-19T14:10:24.081Z,44.43
2022-08-19T14:12:54.165Z,36.15
2022-08-19T14:15:21.069Z,40.55
2022-08-19T14:17:49.549Z,39.10
2022-08-19T14:20:17.799Z,38.47
2022-08-19T14:22:48.446Z,35.13
2022-08-19T14:25:27.465Z,38.33
2022-08-19T14:27:55.096Z,36.42
2022-08-19T14:30:27.695Z,41.63
2022-08-19T14:32:55.640Z,37.65
2022-08-19T14:35:23.561Z,38.60
2022-08-19T14:37:51.847Z,37.78
2022-08-19T14:40:26.599Z,37.35
2022-08-19T14:43:04.772Z,37.50
2022-08-19T14:45:38.820Z,39.60
2022-08-19T14:48:09.042Z,38.17
2022-08-19T14:50:45.638Z,38.42
2022-08-19T14:53:13.302Z,40.50
2022-08-19T14:55:44.116Z,42.88
2022-08-19T14:58:29.266Z,42.78
2022-08-19T15:00:58.922Z,42.20
2022-08-19T15:03:26.877Z,44.95
2022-08-19T15:05:54.060Z,42.70
2022-08-19T15:08:25.674Z,45.75
2022-08-19T15:10:53.202Z,45.53
2022-08-19T15:13:19.992Z,46.07
2022-08-19T15:15:48.332Z,39.58
2022-08-19T15:18:15.871Z,39.72
2022-08-19T15:20:44.413Z,43.58
2022-08-19T15:23:17.371Z,40.83
2022-08-19T15:25:44.413Z,38.67
2022-08-19T15:28:17.204Z,41.28
2022-08-19T15:30:44.527Z,39.13
2022-08-19T15:33:15.241Z,41.22
2022-08-19T15:35:43.640Z,37.97
2022-08-19T15:38:13.773Z,38.33
2022-08-19T15:40:42.140Z,40.55
2022-08-19T15:43:08.865Z,39.72
2022-08-19T15:45:35.560Z,43.45
2022-08-19T15:48:04.375Z,41.90
2022-08-19T15:50:32.133Z,38.97
2022-08-19T15:53:03.436Z,40.95
2022-08-19T15:55:34.741Z,39.92
2022-08-19T15:58:28.277Z,37.75
2022-08-19T16:01:16.526Z,39.15
2022-08-19T16:04:04.148Z,39.80
2022-08-19T16:06:32.931Z,37.30
2022-08-19T16:09:03.591Z,36.33
2022-08-19T16:11:39.335Z,36.97
2022-08-19T16:14:09.310Z,37.03
2022-08-19T16:16:37.301Z,36.87
2022-08-19T16:19:10.283Z,37.85
2022-08-19T16:21:41.619Z,37.42
2022-08-19T16:24:12.088Z,38.72
2022-08-19T16:26:40.185Z,38.10
2022-08-19T16:29:13.108Z,36.77
2022-08-19T16:31:43.498Z,37.38
2022-08-19T16:34:11.527Z,39.53
2022-08-19T16:36:41.732Z,35.28
2022-08-19T16:39:10.526Z,37.88
2022-08-19T16:41:37.820Z,35.70
2022-08-19T16:44:09.702Z,33.85
2022-08-19T16:46:41.568Z,35.75
2022-08-19T16:49:11.131Z,36.00
2022-08-19T16:51:39.030Z,38.50
2022-08-19T16:54:06.030Z,38.03
2022-08-19T16:56:32.828Z,36.58
2022-08-19T16:59:02.121Z,34.58
2022-08-19T17:01:29.559Z,36.92
2022-08-19T17:03:56.628Z,37.67
2022-08-19T17:06:26.388Z,37.80
2022-08-19T17:08:55.949Z,40.53
2022-08-19T17:11:24.721Z,37.25
2022-08-19T17:13:52.615Z,36.05
2022-08-19T17:16:24.485Z,35.05
2022-08-19T17:18:52.794Z,39.03
2022-08-19T17:21:21.537Z,37.30
2022-08-19T17:23:48.801Z,39.90
2022-08-19T17:26:18.599Z,36.28
2022-08-19T17:28:50.985Z,38.53
2022-08-19T17:31:19.605Z,33.90
2022-08-19T17:33:48.430Z,33.33
2022-08-19T17:36:19.409Z,31.15
2022-08-19T17:38:46.218Z,31.50
2022-08-19T17:41:13.039Z,31.00
2022-08-19T17:43:43.634Z,32.13
2022-08-19T17:46:18.221Z,34.03
2022-08-19T17:48:52.254Z,34.55
2022-08-19T17:51:23.468Z,36.58
2022-08-19T17:53:52.705Z,36.80
2022-08-19T17:56:20.156Z,39.77
2022-08-19T17:58:54.384Z,35.88
2022-08-19T18:01:27.564Z,33.80
2022-08-19T18:04:01.848Z,37.28
2022-08-19T18:06:29.116Z,39.85
2022-08-19T18:08:56.834Z,36.27
2022-08-19T18:11:23.581Z,38.90
2022-08-19T18:13:50.233Z,35.47
2022-08-19T18:16:18.741Z,33.20
2022-08-19T18:18:45.389Z,39.13
2022-08-19T18:21:12.148Z,34.43
2022-08-19T18:23:43.935Z,38.22
2022-08-19T18:26:12.772Z,32.97
2022-08-19T18:28:46.850Z,34.72
2022-08-19T18:31:17.114Z,35.25
2022-08-19T18:33:44.873Z,38.90
2022-08-19T18:36:12.135Z,35.28
2022-08-19T18:38:57.212Z,34.35
2022-08-19T18:41:43.417Z,32.67
2022-08-19T18:44:28.670Z,34.60
2022-08-19T18:47:14.286Z,29.23
2022-08-19T18:49:40.983Z,33.88
2022-08-19T18:52:07.736Z,32.65
2022-08-19T18:54:35.634Z,35.53
2022-08-19T18:57:05.594Z,33.85
2022-08-19T18:59:32.762Z,32.97
2022-08-19T19:02:00.966Z,36.35
2022-08-19T19:04:36.378Z,34.25
2022-08-19T19:07:05.046Z,33.47
2022-08-19T19:09:31.874Z,32.22
2022-08-19T19:12:01.285Z,30.77
2022-08-19T19:14:49.254Z,32.40
2022-08-19T19:17:17.003Z,30.15
2022-08-19T19:19:44.485Z,32.40
2022-08-19T19:22:17.504Z,32.80
2022-08-19T19:24:44.317Z,29.67
2022-08-19T19:27:13.455Z,30.08
2022-08-19T19:29:41.444Z,32.30
2022-08-19T19:32:16.507Z,31.33
2022-08-19T19:34:43.864Z,30.50
2022-08-19T19:37:10.653Z,30.67
2022-08-19T19:39:46.361Z,32.30
2022-08-19T19:42:20.356Z,31.92
2022-08-19T19:44:50.583Z,31.85
2022-08-19T19:47:19.063Z,34.17
2022-08-19T19:50:13.355Z,32.43
2022-08-19T19:52:41.025Z,32.45
2022-08-19T19:55:09.519Z,29.05
2022-08-19T19:57:37.391Z,34.60
2022-08-19T20:00:05.371Z,32.53
2022-08-19T20:02:32.058Z,30.80
2022-08-19T20:04:58.884Z,31.45
2022-08-19T20:07:45.880Z,30.10
2022-08-19T20:10:13.537Z,28.40
2022-08-19T20:12:40.280Z,29.67
2022-08-19T20:15:08.154Z,27.23
2022-08-19T20:17:42.319Z,29.15
2022-08-19T20:20:14.052Z,30.23
2022-08-19T20:22:43.129Z,29.67
2022-08-19T20:25:14.505Z,28.67
2022-08-19T20:27:42.244Z,28.60
2022-08-19T20:30:19.150Z,29.08
2022-08-19T20:32:47.297Z,28.17
2022-08-19T20:35:16.944Z,26.80
2022-08-19T20:37:43.655Z,28.85
2022-08-19T20:40:11.572Z,29.47
2022-08-19T20:42:42.732Z,29.58
2022-08-19T20:45:21.553Z,28.80
2022-08-19T20:47:59.465Z,29.65
2022-08-19T20:50:26.174Z,27.63
2022-08-19T20:52:57.141Z,29.07
2022-08-19T20:55:23.918Z,29.90
2022-08-19T20:57:51.601Z,25.63
2022-08-19T21:00:18.918Z,28.23
2022-08-19T21:02:46.850Z,26.70
2022-08-19T21:05:14.978Z,28.20
2022-08-19T21:07:42.690Z,30.50
2022-08-19T21:10:09.524Z,25.90
2022-08-19T21:12:36.201Z,27.55
2022-08-19T21:15:03.299Z,27.23
2022-08-19T21:17:29.979Z,25.07
2022-08-19T21:19:56.628Z,27.08
2022-08-19T21:22:23.415Z,26.55
2022-08-19T21:24:50.086Z,24.52
2022-08-19T21:27:16.769Z,22.98
2022-08-19T21:29:43.527Z,22.33
2022-08-19T21:32:14.260Z,26.60
2022-08-19T21:34:43.838Z,24.25
2022-08-19T21:37:25.082Z,24.00
2022-08-19T21:39:54.236Z,26.83
2022-08-19T21:42:22.936Z,24.67
2022-08-19T21:44:49.653Z,24.85
2022-08-19T21:47:16.305Z,27.05
2022-08-19T21:49:43.036Z,24.13
2022-08-19T21:52:09.741Z,28.48
2022-08-19T21:54:38.033Z,28.60
2022-08-19T21:57:10.111Z,29.23
2022-08-19T21:59:43.546Z,26.38
2022-08-19T22:02:21.004Z,27.20
2022-08-19T22:04:50.084Z,29.20
2022-08-19T22:07:17.475Z,26.77
2022-08-19T22:09:45.785Z,26.58
2022-08-19T22:12:28.378Z,27.38
2022-08-19T22:14:56.669Z,25.67
2022-08-19T22:17:24.168Z,24.42
2022-08-19T22:19:52.420Z,26.47
2022-08-19T22:22:21.666Z,29.25
2022-08-19T22:24:48.359Z,27.98
2022-08-19T22:27:15.097Z,23.73
2022-08-19T22:29:41.996Z,24.50
2022-08-19T22:32:26.166Z,25.50
2022-08-19T22:34:56.689Z,23.10
2022-08-19T22:37:23.436Z,25.10
2022-08-19T22:39:50.178Z,22.10
2022-08-19T22:42:20.885Z,25.35
2022-08-19T22:44:47.939Z,21.87
2022-08-19T22:47:14.801Z,21.58
2022-08-19T22:49:41.529Z,19.73
2022-08-19T22:52:20.171Z,18.75
2022-08-19T22:54:47.982Z,22.23
2022-08-19T22:57:15.147Z,24.17
2022-08-19T22:59:42.142Z,22.35
2022-08-19T23:02:09.674Z,20.27
2022-08-19T23:04:36.580Z,19.70
2022-08-19T23:07:05.088Z,19.92
2022-08-19T23:09:34.646Z,20.83
2022-08-19T23:12:03.621Z,21.10
2022-08-19T23:14:30.414Z,23.05
2022-08-19T23:16:59.033Z,20.20
2022-08-19T23:19:26.237Z,19.88
2022-08-19T23:21:53.197Z,19.50
2022-08-19T23:24:20.201Z,20.38
2022-08-19T23:27:05.718Z,18.90
2022-08-19T23:29:52.235Z,19.85
2022-08-19T23:32:20.718Z,21.02
2022-08-19T23:34:48.192Z,21.30
2022-08-19T23:37:15.187Z,19.95
2022-08-19T23:39:41.858Z,19.02
2022-08-19T23:42:11.464Z,18.55
2022-08-19T23:44:51.609Z,17.17
2022-08-19T23:47:20.181Z,17.13
2022-08-19T23:49:48.549Z,16.95
2022-08-19T23:52:15.317Z,17.40
2022-08-19T23:54:43.661Z,16.30
2022-08-19T23:57:13.910Z,17.00
2022-08-19T23:59:42.538Z,15.83
